Aviation Digital Data Service (ADDS)

Output produced by METARs form (0149 UTC 16 January 2019)
found at http://www.aviationweather.gov/metar/data/
 
TAF MYGF 152200Z 1600/1624 36005KT 9999 BKN030
       
MYNN 152200Z 1600/1624 02005KT 9999 SCT030